sensor_id;sensor_type;location;lat;lon;timestamp;P1;durP1;ratioP1;P2;durP2;ratioP2
32152;SDS011;18656;50.580;11.392;2023-09-30T00:01:59;2.67;;;1.55;;
32152;SDS011;18656;50.580;11.392;2023-09-30T00:04:26;4.53;;;1.88;;
32152;SDS011;18656;50.580;11.392;2023-09-30T00:06:54;3.72;;;1.50;;
32152;SDS011;18656;50.580;11.392;2023-09-30T00:09:21;2.85;;;1.52;;
32152;SDS011;18656;50.580;11.392;2023-09-30T00:11:49;4.93;;;1.50;;
32152;SDS011;18656;50.580;11.392;2023-09-30T00:14:16;3.45;;;1.77;;
32152;SDS011;18656;50.580;11.392;2023-09-30T00:16:43;2.05;;;1.30;;
32152;SDS011;18656;50.580;11.392;2023-09-30T00:19:11;3.42;;;1.40;;
32152;SDS011;18656;50.580;11.392;2023-09-30T00:21:39;2.70;;;1.50;;
32152;SDS011;18656;50.580;11.392;2023-09-30T00:24:07;3.05;;;1.35;;
32152;SDS011;18656;50.580;11.392;2023-09-30T00:26:34;3.13;;;1.30;;
32152;SDS011;18656;50.580;11.392;2023-09-30T00:29:01;2.15;;;1.23;;
32152;SDS011;18656;50.580;11.392;2023-09-30T00:31:32;3.58;;;1.45;;
32152;SDS011;18656;50.580;11.392;2023-09-30T00:33:59;3.80;;;1.55;;
32152;SDS011;18656;50.580;11.392;2023-09-30T00:36:26;5.25;;;1.38;;
32152;SDS011;18656;50.580;11.392;2023-09-30T00:38:54;3.20;;;1.33;;
32152;SDS011;18656;50.580;11.392;2023-09-30T00:41:22;5.13;;;1.60;;
32152;SDS011;18656;50.580;11.392;2023-09-30T00:43:49;4.45;;;1.67;;
32152;SDS011;18656;50.580;11.392;2023-09-30T00:48:43;2.95;;;1.60;;
32152;SDS011;18656;50.580;11.392;2023-09-30T00:51:11;3.15;;;1.73;;
32152;SDS011;18656;50.580;11.392;2023-09-30T00:53:38;4.53;;;1.50;;
32152;SDS011;18656;50.580;11.392;2023-09-30T00:56:06;6.10;;;1.70;;
32152;SDS011;18656;50.580;11.392;2023-09-30T00:58:33;2.22;;;1.77;;
32152;SDS011;18656;50.580;11.392;2023-09-30T01:01:01;2.33;;;1.55;;
32152;SDS011;18656;50.580;11.392;2023-09-30T01:03:28;3.95;;;1.83;;
32152;SDS011;18656;50.580;11.392;2023-09-30T01:05:56;4.72;;;1.75;;
32152;SDS011;18656;50.580;11.392;2023-09-30T01:08:23;3.13;;;1.58;;
32152;SDS011;18656;50.580;11.392;2023-09-30T01:10:52;3.95;;;1.73;;
32152;SDS011;18656;50.580;11.392;2023-09-30T01:13:19;3.67;;;1.80;;
32152;SDS011;18656;50.580;11.392;2023-09-30T01:15:46;2.50;;;1.63;;
32152;SDS011;18656;50.580;11.392;2023-09-30T01:18:13;6.43;;;1.45;;
32152;SDS011;18656;50.580;11.392;2023-09-30T01:20:41;3.95;;;1.70;;
32152;SDS011;18656;50.580;11.392;2023-09-30T01:23:08;4.15;;;1.67;;
32152;SDS011;18656;50.580;11.392;2023-09-30T01:25:39;4.35;;;1.83;;
32152;SDS011;18656;50.580;11.392;2023-09-30T01:28:09;4.88;;;1.80;;
32152;SDS011;18656;50.580;11.392;2023-09-30T01:30:36;4.78;;;2.05;;
32152;SDS011;18656;50.580;11.392;2023-09-30T01:33:05;5.63;;;2.08;;
32152;SDS011;18656;50.580;11.392;2023-09-30T01:35:34;7.03;;;2.17;;
32152;SDS011;18656;50.580;11.392;2023-09-30T01:38:01;3.70;;;1.85;;
32152;SDS011;18656;50.580;11.392;2023-09-30T01:40:28;6.00;;;1.77;;
32152;SDS011;18656;50.580;11.392;2023-09-30T01:42:56;3.70;;;1.90;;
32152;SDS011;18656;50.580;11.392;2023-09-30T01:45:23;5.70;;;1.63;;
32152;SDS011;18656;50.580;11.392;2023-09-30T01:47:51;7.13;;;2.13;;
32152;SDS011;18656;50.580;11.392;2023-09-30T01:50:18;5.47;;;2.55;;
32152;SDS011;18656;50.580;11.392;2023-09-30T01:52:46;6.47;;;1.90;;
32152;SDS011;18656;50.580;11.392;2023-09-30T01:55:14;5.80;;;2.22;;
32152;SDS011;18656;50.580;11.392;2023-09-30T01:57:42;5.82;;;2.15;;
32152;SDS011;18656;50.580;11.392;2023-09-30T02:00:09;5.90;;;2.05;;
32152;SDS011;18656;50.580;11.392;2023-09-30T02:02:37;3.40;;;1.95;;
32152;SDS011;18656;50.580;11.392;2023-09-30T02:05:04;7.25;;;2.05;;
32152;SDS011;18656;50.580;11.392;2023-09-30T02:07:34;6.53;;;2.10;;
32152;SDS011;18656;50.580;11.392;2023-09-30T02:10:02;6.15;;;1.67;;
32152;SDS011;18656;50.580;11.392;2023-09-30T02:12:29;4.13;;;1.60;;
32152;SDS011;18656;50.580;11.392;2023-09-30T02:14:58;4.72;;;1.77;;
32152;SDS011;18656;50.580;11.392;2023-09-30T02:17:25;4.63;;;1.63;;
32152;SDS011;18656;50.580;11.392;2023-09-30T02:19:52;8.18;;;2.00;;
32152;SDS011;18656;50.580;11.392;2023-09-30T02:22:21;7.63;;;1.80;;
32152;SDS011;18656;50.580;11.392;2023-09-30T02:24:49;6.38;;;2.03;;
32152;SDS011;18656;50.580;11.392;2023-09-30T02:27:17;4.13;;;1.83;;
32152;SDS011;18656;50.580;11.392;2023-09-30T02:29:44;7.47;;;2.10;;
32152;SDS011;18656;50.580;11.392;2023-09-30T02:32:11;6.47;;;1.98;;
32152;SDS011;18656;50.580;11.392;2023-09-30T02:34:40;5.63;;;2.20;;
32152;SDS011;18656;50.580;11.392;2023-09-30T02:37:08;5.82;;;2.22;;
32152;SDS011;18656;50.580;11.392;2023-09-30T02:39:36;7.22;;;2.10;;
32152;SDS011;18656;50.580;11.392;2023-09-30T02:42:04;4.80;;;2.30;;
32152;SDS011;18656;50.580;11.392;2023-09-30T02:44:31;5.70;;;2.05;;
32152;SDS011;18656;50.580;11.392;2023-09-30T02:46:58;6.10;;;1.60;;
32152;SDS011;18656;50.580;11.392;2023-09-30T02:49:25;3.30;;;1.58;;
32152;SDS011;18656;50.580;11.392;2023-09-30T02:51:53;3.63;;;1.55;;
32152;SDS011;18656;50.580;11.392;2023-09-30T02:54:21;6.72;;;1.60;;
32152;SDS011;18656;50.580;11.392;2023-09-30T02:56:48;6.90;;;1.75;;
32152;SDS011;18656;50.580;11.392;2023-09-30T02:59:15;7.25;;;1.60;;
32152;SDS011;18656;50.580;11.392;2023-09-30T03:01:43;5.55;;;1.73;;
32152;SDS011;18656;50.580;11.392;2023-09-30T03:04:10;5.43;;;1.70;;
32152;SDS011;18656;50.580;11.392;2023-09-30T03:06:39;5.75;;;1.50;;
32152;SDS011;18656;50.580;11.392;2023-09-30T03:09:06;4.10;;;1.35;;
32152;SDS011;18656;50.580;11.392;2023-09-30T03:11:35;4.38;;;1.85;;
32152;SDS011;18656;50.580;11.392;2023-09-30T03:14:03;6.65;;;2.08;;
32152;SDS011;18656;50.580;11.392;2023-09-30T03:16:30;6.93;;;1.60;;
32152;SDS011;18656;50.580;11.392;2023-09-30T03:18:58;5.70;;;2.15;;
32152;SDS011;18656;50.580;11.392;2023-09-30T03:21:25;5.50;;;2.05;;
32152;SDS011;18656;50.580;11.392;2023-09-30T03:23:53;3.33;;;1.50;;
32152;SDS011;18656;50.580;11.392;2023-09-30T03:26:20;5.78;;;1.92;;
32152;SDS011;18656;50.580;11.392;2023-09-30T03:28:48;5.95;;;1.75;;
32152;SDS011;18656;50.580;11.392;2023-09-30T03:31:19;4.05;;;1.70;;
32152;SDS011;18656;50.580;11.392;2023-09-30T03:33:46;7.38;;;1.65;;
32152;SDS011;18656;50.580;11.392;2023-09-30T03:36:14;9.07;;;2.10;;
32152;SDS011;18656;50.580;11.392;2023-09-30T03:38:41;5.93;;;1.90;;
32152;SDS011;18656;50.580;11.392;2023-09-30T03:41:08;6.60;;;2.15;;
32152;SDS011;18656;50.580;11.392;2023-09-30T03:43:39;5.43;;;1.60;;
32152;SDS011;18656;50.580;11.392;2023-09-30T03:46:08;5.00;;;1.80;;
32152;SDS011;18656;50.580;11.392;2023-09-30T03:48:35;3.50;;;1.48;;
32152;SDS011;18656;50.580;11.392;2023-09-30T03:51:09;2.75;;;1.35;;
32152;SDS011;18656;50.580;11.392;2023-09-30T03:53:41;3.90;;;1.52;;
32152;SDS011;18656;50.580;11.392;2023-09-30T03:56:08;4.82;;;1.75;;
32152;SDS011;18656;50.580;11.392;2023-09-30T03:58:39;5.82;;;1.90;;
32152;SDS011;18656;50.580;11.392;2023-09-30T04:01:08;4.18;;;1.92;;
32152;SDS011;18656;50.580;11.392;2023-09-30T04:03:40;6.18;;;1.80;;
32152;SDS011;18656;50.580;11.392;2023-09-30T04:06:10;4.65;;;1.60;;
32152;SDS011;18656;50.580;11.392;2023-09-30T04:08:37;5.18;;;1.70;;
32152;SDS011;18656;50.580;11.392;2023-09-30T04:11:04;7.03;;;2.47;;
32152;SDS011;18656;50.580;11.392;2023-09-30T04:13:32;6.50;;;1.90;;
32152;SDS011;18656;50.580;11.392;2023-09-30T04:15:59;4.57;;;1.95;;
32152;SDS011;18656;50.580;11.392;2023-09-30T04:18:27;5.95;;;1.90;;
32152;SDS011;18656;50.580;11.392;2023-09-30T04:20:54;3.58;;;1.42;;
32152;SDS011;18656;50.580;11.392;2023-09-30T04:23:21;3.92;;;1.88;;
32152;SDS011;18656;50.580;11.392;2023-09-30T04:25:49;6.30;;;1.70;;
32152;SDS011;18656;50.580;11.392;2023-09-30T04:28:16;3.58;;;1.75;;
32152;SDS011;18656;50.580;11.392;2023-09-30T04:30:47;3.70;;;1.40;;
32152;SDS011;18656;50.580;11.392;2023-09-30T04:33:16;5.05;;;1.70;;
32152;SDS011;18656;50.580;11.392;2023-09-30T04:35:46;5.38;;;1.42;;
32152;SDS011;18656;50.580;11.392;2023-09-30T04:38:14;4.53;;;1.90;;
32152;SDS011;18656;50.580;11.392;2023-09-30T04:40:41;4.50;;;1.67;;
32152;SDS011;18656;50.580;11.392;2023-09-30T04:43:10;5.30;;;1.98;;
32152;SDS011;18656;50.580;11.392;2023-09-30T04:45:37;4.53;;;1.88;;
32152;SDS011;18656;50.580;11.392;2023-09-30T04:48:06;4.63;;;1.75;;
32152;SDS011;18656;50.580;11.392;2023-09-30T04:50:33;3.45;;;2.08;;
32152;SDS011;18656;50.580;11.392;2023-09-30T04:53:00;6.05;;;1.80;;
32152;SDS011;18656;50.580;11.392;2023-09-30T04:55:28;6.57;;;2.03;;
32152;SDS011;18656;50.580;11.392;2023-09-30T04:57:55;5.63;;;1.52;;
32152;SDS011;18656;50.580;11.392;2023-09-30T05:00:23;4.57;;;2.10;;
32152;SDS011;18656;50.580;11.392;2023-09-30T05:02:55;7.85;;;1.60;;
32152;SDS011;18656;50.580;11.392;2023-09-30T05:05:22;5.70;;;1.77;;
32152;SDS011;18656;50.580;11.392;2023-09-30T05:07:49;4.15;;;1.48;;
32152;SDS011;18656;50.580;11.392;2023-09-30T05:10:17;4.32;;;1.52;;
32152;SDS011;18656;50.580;11.392;2023-09-30T05:12:45;4.43;;;1.67;;
32152;SDS011;18656;50.580;11.392;2023-09-30T05:15:14;4.80;;;1.95;;
32152;SDS011;18656;50.580;11.392;2023-09-30T05:17:42;6.47;;;2.22;;
32152;SDS011;18656;50.580;11.392;2023-09-30T05:20:10;5.20;;;1.90;;
32152;SDS011;18656;50.580;11.392;2023-09-30T05:22:41;3.03;;;1.50;;
32152;SDS011;18656;50.580;11.392;2023-09-30T05:25:12;4.03;;;1.60;;
32152;SDS011;18656;50.580;11.392;2023-09-30T05:27:42;3.75;;;1.92;;
32152;SDS011;18656;50.580;11.392;2023-09-30T05:30:10;6.03;;;2.08;;
32152;SDS011;18656;50.580;11.392;2023-09-30T05:32:37;8.45;;;2.28;;
32152;SDS011;18656;50.580;11.392;2023-09-30T05:35:06;4.80;;;2.28;;
32152;SDS011;18656;50.580;11.392;2023-09-30T05:37:43;5.32;;;2.63;;
32152;SDS011;18656;50.580;11.392;2023-09-30T05:40:13;5.47;;;2.05;;
32152;SDS011;18656;50.580;11.392;2023-09-30T05:42:52;3.55;;;1.65;;
32152;SDS011;18656;50.580;11.392;2023-09-30T05:45:21;8.63;;;2.38;;
32152;SDS011;18656;50.580;11.392;2023-09-30T05:47:53;5.35;;;2.10;;
32152;SDS011;18656;50.580;11.392;2023-09-30T05:50:23;4.60;;;3.22;;
32152;SDS011;18656;50.580;11.392;2023-09-30T05:52:55;6.90;;;2.65;;
32152;SDS011;18656;50.580;11.392;2023-09-30T05:55:22;5.47;;;2.55;;
32152;SDS011;18656;50.580;11.392;2023-09-30T05:57:52;7.97;;;2.38;;
32152;SDS011;18656;50.580;11.392;2023-09-30T06:00:20;5.32;;;2.10;;
32152;SDS011;18656;50.580;11.392;2023-09-30T06:03:02;4.63;;;2.00;;
32152;SDS011;18656;50.580;11.392;2023-09-30T06:05:32;4.35;;;1.90;;
32152;SDS011;18656;50.580;11.392;2023-09-30T06:08:01;5.05;;;2.13;;
32152;SDS011;18656;50.580;11.392;2023-09-30T06:10:35;6.07;;;2.05;;
32152;SDS011;18656;50.580;11.392;2023-09-30T06:13:04;3.95;;;2.10;;
32152;SDS011;18656;50.580;11.392;2023-09-30T06:15:31;5.40;;;2.42;;
32152;SDS011;18656;50.580;11.392;2023-09-30T06:17:59;9.95;;;2.40;;
32152;SDS011;18656;50.580;11.392;2023-09-30T06:20:27;11.80;;;2.85;;
32152;SDS011;18656;50.580;11.392;2023-09-30T06:22:57;5.18;;;2.50;;
32152;SDS011;18656;50.580;11.392;2023-09-30T06:25:24;10.95;;;3.13;;
32152;SDS011;18656;50.580;11.392;2023-09-30T06:27:52;37.00;;;6.03;;
32152;SDS011;18656;50.580;11.392;2023-09-30T06:30:19;15.98;;;3.38;;
32152;SDS011;18656;50.580;11.392;2023-09-30T06:32:47;4.22;;;2.03;;
32152;SDS011;18656;50.580;11.392;2023-09-30T06:35:15;5.07;;;1.92;;
32152;SDS011;18656;50.580;11.392;2023-09-30T06:37:44;9.52;;;2.10;;
32152;SDS011;18656;50.580;11.392;2023-09-30T06:40:12;4.00;;;1.95;;
32152;SDS011;18656;50.580;11.392;2023-09-30T06:42:39;9.23;;;2.72;;
32152;SDS011;18656;50.580;11.392;2023-09-30T06:45:07;4.93;;;2.13;;
32152;SDS011;18656;50.580;11.392;2023-09-30T06:47:37;4.47;;;1.77;;
32152;SDS011;18656;50.580;11.392;2023-09-30T06:50:07;8.30;;;1.75;;
32152;SDS011;18656;50.580;11.392;2023-09-30T06:52:35;3.88;;;1.88;;
32152;SDS011;18656;50.580;11.392;2023-09-30T06:55:03;3.65;;;1.90;;
32152;SDS011;18656;50.580;11.392;2023-09-30T06:57:36;7.40;;;2.22;;
32152;SDS011;18656;50.580;11.392;2023-09-30T07:00:06;5.22;;;2.15;;
32152;SDS011;18656;50.580;11.392;2023-09-30T07:02:35;6.50;;;2.47;;
32152;SDS011;18656;50.580;11.392;2023-09-30T07:05:07;8.20;;;2.90;;
32152;SDS011;18656;50.580;11.392;2023-09-30T07:07:34;10.45;;;3.10;;
32152;SDS011;18656;50.580;11.392;2023-09-30T07:10:04;9.02;;;2.88;;
32152;SDS011;18656;50.580;11.392;2023-09-30T07:12:32;5.97;;;2.72;;
32152;SDS011;18656;50.580;11.392;2023-09-30T07:15:02;10.38;;;2.58;;
32152;SDS011;18656;50.580;11.392;2023-09-30T07:17:30;5.13;;;2.75;;
32152;SDS011;18656;50.580;11.392;2023-09-30T07:19:57;4.28;;;2.15;;
32152;SDS011;18656;50.580;11.392;2023-09-30T07:22:25;6.57;;;2.60;;
32152;SDS011;18656;50.580;11.392;2023-09-30T07:25:11;7.57;;;2.58;;
32152;SDS011;18656;50.580;11.392;2023-09-30T07:27:41;7.43;;;2.70;;
32152;SDS011;18656;50.580;11.392;2023-09-30T07:30:08;8.50;;;2.53;;
32152;SDS011;18656;50.580;11.392;2023-09-30T07:32:38;6.47;;;2.88;;
32152;SDS011;18656;50.580;11.392;2023-09-30T07:35:05;6.07;;;2.55;;
32152;SDS011;18656;50.580;11.392;2023-09-30T07:37:34;4.40;;;2.30;;
32152;SDS011;18656;50.580;11.392;2023-09-30T07:40:01;8.30;;;2.67;;
32152;SDS011;18656;50.580;11.392;2023-09-30T07:42:29;8.40;;;2.55;;
32152;SDS011;18656;50.580;11.392;2023-09-30T07:44:56;8.98;;;2.40;;
32152;SDS011;18656;50.580;11.392;2023-09-30T07:47:24;6.32;;;2.53;;
32152;SDS011;18656;50.580;11.392;2023-09-30T07:49:51;5.85;;;2.63;;
32152;SDS011;18656;50.580;11.392;2023-09-30T07:52:19;9.68;;;2.75;;
32152;SDS011;18656;50.580;11.392;2023-09-30T07:54:46;6.60;;;2.30;;
32152;SDS011;18656;50.580;11.392;2023-09-30T07:57:14;6.57;;;2.78;;
32152;SDS011;18656;50.580;11.392;2023-09-30T07:59:41;7.55;;;2.30;;
32152;SDS011;18656;50.580;11.392;2023-09-30T08:02:08;4.43;;;2.33;;
32152;SDS011;18656;50.580;11.392;2023-09-30T08:04:36;4.13;;;2.20;;
32152;SDS011;18656;50.580;11.392;2023-09-30T08:07:03;5.57;;;1.85;;
32152;SDS011;18656;50.580;11.392;2023-09-30T08:09:30;10.07;;;2.35;;
32152;SDS011;18656;50.580;11.392;2023-09-30T08:11:58;5.82;;;2.25;;
32152;SDS011;18656;50.580;11.392;2023-09-30T08:14:25;8.20;;;2.58;;
32152;SDS011;18656;50.580;11.392;2023-09-30T08:16:52;5.45;;;2.05;;
32152;SDS011;18656;50.580;11.392;2023-09-30T08:19:20;9.43;;;2.50;;
32152;SDS011;18656;50.580;11.392;2023-09-30T08:21:48;4.93;;;2.03;;
32152;SDS011;18656;50.580;11.392;2023-09-30T08:24:15;7.63;;;1.98;;
32152;SDS011;18656;50.580;11.392;2023-09-30T08:26:43;5.20;;;2.05;;
32152;SDS011;18656;50.580;11.392;2023-09-30T08:29:11;5.47;;;2.25;;
32152;SDS011;18656;50.580;11.392;2023-09-30T08:31:38;5.88;;;2.25;;
32152;SDS011;18656;50.580;11.392;2023-09-30T08:34:06;6.43;;;2.20;;
32152;SDS011;18656;50.580;11.392;2023-09-30T08:36:33;8.10;;;2.45;;
32152;SDS011;18656;50.580;11.392;2023-09-30T08:39:00;7.18;;;2.15;;
32152;SDS011;18656;50.580;11.392;2023-09-30T08:41:31;6.57;;;2.40;;
32152;SDS011;18656;50.580;11.392;2023-09-30T08:44:02;10.55;;;2.50;;
32152;SDS011;18656;50.580;11.392;2023-09-30T08:46:30;9.63;;;2.78;;
32152;SDS011;18656;50.580;11.392;2023-09-30T08:49:00;6.28;;;2.15;;
32152;SDS011;18656;50.580;11.392;2023-09-30T08:51:28;6.15;;;2.03;;
32152;SDS011;18656;50.580;11.392;2023-09-30T08:53:56;8.88;;;2.83;;
32152;SDS011;18656;50.580;11.392;2023-09-30T08:56:29;6.07;;;2.28;;
32152;SDS011;18656;50.580;11.392;2023-09-30T09:01:26;9.82;;;2.78;;
32152;SDS011;18656;50.580;11.392;2023-09-30T09:03:55;7.28;;;2.65;;
32152;SDS011;18656;50.580;11.392;2023-09-30T09:06:24;7.70;;;2.22;;
32152;SDS011;18656;50.580;11.392;2023-09-30T09:08:52;5.28;;;2.20;;
32152;SDS011;18656;50.580;11.392;2023-09-30T09:11:19;7.10;;;2.60;;
32152;SDS011;18656;50.580;11.392;2023-09-30T09:13:48;8.05;;;2.47;;
32152;SDS011;18656;50.580;11.392;2023-09-30T09:16:17;13.35;;;2.63;;
32152;SDS011;18656;50.580;11.392;2023-09-30T09:18:45;8.43;;;2.33;;
32152;SDS011;18656;50.580;11.392;2023-09-30T09:21:21;5.35;;;2.60;;
32152;SDS011;18656;50.580;11.392;2023-09-30T09:26:25;5.78;;;2.15;;
32152;SDS011;18656;50.580;11.392;2023-09-30T09:28:59;6.22;;;2.25;;
32152;SDS011;18656;50.580;11.392;2023-09-30T09:31:28;6.55;;;2.10;;
32152;SDS011;18656;50.580;11.392;2023-09-30T09:33:55;6.97;;;2.50;;
32152;SDS011;18656;50.580;11.392;2023-09-30T09:36:43;6.22;;;2.40;;
32152;SDS011;18656;50.580;11.392;2023-09-30T09:39:23;4.65;;;1.90;;
32152;SDS011;18656;50.580;11.392;2023-09-30T09:41:59;7.70;;;2.35;;
32152;SDS011;18656;50.580;11.392;2023-09-30T09:44:27;5.63;;;2.10;;
32152;SDS011;18656;50.580;11.392;2023-09-30T09:46:56;4.57;;;1.98;;
32152;SDS011;18656;50.580;11.392;2023-09-30T09:49:24;4.88;;;2.30;;
32152;SDS011;18656;50.580;11.392;2023-09-30T09:51:52;5.72;;;2.30;;
32152;SDS011;18656;50.580;11.392;2023-09-30T09:54:19;6.47;;;2.40;;
32152;SDS011;18656;50.580;11.392;2023-09-30T09:56:48;6.65;;;2.10;;
32152;SDS011;18656;50.580;11.392;2023-09-30T09:59:16;7.35;;;2.13;;
32152;SDS011;18656;50.580;11.392;2023-09-30T10:01:44;5.30;;;2.38;;
32152;SDS011;18656;50.580;11.392;2023-09-30T10:04:18;5.28;;;2.30;;
32152;SDS011;18656;50.580;11.392;2023-09-30T10:06:46;6.78;;;2.00;;
32152;SDS011;18656;50.580;11.392;2023-09-30T10:09:17;4.75;;;1.92;;
32152;SDS011;18656;50.580;11.392;2023-09-30T10:14:35;5.00;;;2.05;;
32152;SDS011;18656;50.580;11.392;2023-09-30T10:20:10;7.75;;;2.30;;
32152;SDS011;18656;50.580;11.392;2023-09-30T10:22:36;7.72;;;2.50;;
32152;SDS011;18656;50.580;11.392;2023-09-30T10:25:32;6.55;;;1.75;;
32152;SDS011;18656;50.580;11.392;2023-09-30T10:28:00;4.70;;;1.77;;
32152;SDS011;18656;50.580;11.392;2023-09-30T10:31:29;5.85;;;1.77;;
32152;SDS011;18656;50.580;11.392;2023-09-30T10:36:35;3.88;;;2.05;;
32152;SDS011;18656;50.580;11.392;2023-09-30T10:39:05;5.80;;;1.90;;
32152;SDS011;18656;50.580;11.392;2023-09-30T10:46:58;2.60;;;1.50;;
32152;SDS011;18656;50.580;11.392;2023-09-30T10:51:57;4.32;;;2.00;;
32152;SDS011;18656;50.580;11.392;2023-09-30T10:57:50;4.65;;;1.90;;
32152;SDS011;18656;50.580;11.392;2023-09-30T11:00:18;5.10;;;2.00;;
32152;SDS011;18656;50.580;11.392;2023-09-30T11:02:49;4.18;;;2.10;;
32152;SDS011;18656;50.580;11.392;2023-09-30T11:05:29;5.22;;;2.05;;
32152;SDS011;18656;50.580;11.392;2023-09-30T11:08:16;4.30;;;1.83;;
32152;SDS011;18656;50.580;11.392;2023-09-30T11:13:33;6.00;;;1.80;;
32152;SDS011;18656;50.580;11.392;2023-09-30T11:16:05;3.85;;;2.10;;
32152;SDS011;18656;50.580;11.392;2023-09-30T11:18:32;3.97;;;2.03;;
32152;SDS011;18656;50.580;11.392;2023-09-30T11:21:03;3.20;;;1.90;;
32152;SDS011;18656;50.580;11.392;2023-09-30T11:26:11;5.00;;;1.83;;
32152;SDS011;18656;50.580;11.392;2023-09-30T11:31:32;3.85;;;1.70;;
32152;SDS011;18656;50.580;11.392;2023-09-30T11:34:00;8.43;;;2.22;;
32152;SDS011;18656;50.580;11.392;2023-09-30T11:36:34;4.10;;;2.13;;
32152;SDS011;18656;50.580;11.392;2023-09-30T11:39:02;5.20;;;1.70;;
32152;SDS011;18656;50.580;11.392;2023-09-30T11:46:57;3.10;;;1.60;;
32152;SDS011;18656;50.580;11.392;2023-09-30T11:49:41;5.10;;;1.70;;
32152;SDS011;18656;50.580;11.392;2023-09-30T11:52:15;4.35;;;1.75;;
32152;SDS011;18656;50.580;11.392;2023-09-30T11:54:43;6.13;;;2.05;;
32152;SDS011;18656;50.580;11.392;2023-09-30T11:57:18;2.80;;;1.52;;
32152;SDS011;18656;50.580;11.392;2023-09-30T11:59:46;5.28;;;1.90;;
32152;SDS011;18656;50.580;11.392;2023-09-30T12:02:13;5.53;;;1.70;;
32152;SDS011;18656;50.580;11.392;2023-09-30T12:04:45;4.45;;;1.70;;
32152;SDS011;18656;50.580;11.392;2023-09-30T12:07:16;2.92;;;1.35;;
32152;SDS011;18656;50.580;11.392;2023-09-30T12:09:58;6.70;;;1.85;;
32152;SDS011;18656;50.580;11.392;2023-09-30T12:12:25;3.67;;;1.80;;
32152;SDS011;18656;50.580;11.392;2023-09-30T12:14:52;3.53;;;1.98;;
32152;SDS011;18656;50.580;11.392;2023-09-30T12:17:21;8.45;;;3.08;;
32152;SDS011;18656;50.580;11.392;2023-09-30T12:22:25;4.43;;;1.90;;
32152;SDS011;18656;50.580;11.392;2023-09-30T12:24:54;3.88;;;1.80;;
32152;SDS011;18656;50.580;11.392;2023-09-30T12:27:21;4.88;;;1.70;;
32152;SDS011;18656;50.580;11.392;2023-09-30T12:29:49;4.10;;;2.10;;
32152;SDS011;18656;50.580;11.392;2023-09-30T12:32:16;7.18;;;1.83;;
32152;SDS011;18656;50.580;11.392;2023-09-30T12:34:55;6.47;;;2.53;;
32152;SDS011;18656;50.580;11.392;2023-09-30T12:37:23;3.50;;;1.70;;
32152;SDS011;18656;50.580;11.392;2023-09-30T12:39:59;3.97;;;1.75;;
32152;SDS011;18656;50.580;11.392;2023-09-30T12:42:27;2.35;;;1.63;;
32152;SDS011;18656;50.580;11.392;2023-09-30T12:44:55;4.65;;;1.80;;
32152;SDS011;18656;50.580;11.392;2023-09-30T12:47:23;6.15;;;1.80;;
32152;SDS011;18656;50.580;11.392;2023-09-30T12:49:50;3.80;;;1.48;;
32152;SDS011;18656;50.580;11.392;2023-09-30T12:52:20;4.75;;;1.77;;
32152;SDS011;18656;50.580;11.392;2023-09-30T12:54:48;3.45;;;1.50;;
32152;SDS011;18656;50.580;11.392;2023-09-30T12:57:19;1.50;;;1.40;;
32152;SDS011;18656;50.580;11.392;2023-09-30T12:59:46;4.95;;;1.65;;
32152;SDS011;18656;50.580;11.392;2023-09-30T13:05:13;4.72;;;1.55;;
32152;SDS011;18656;50.580;11.392;2023-09-30T13:07:43;2.45;;;1.30;;
32152;SDS011;18656;50.580;11.392;2023-09-30T13:10:10;3.10;;;1.40;;
32152;SDS011;18656;50.580;11.392;2023-09-30T13:12:39;1.58;;;1.17;;
32152;SDS011;18656;50.580;11.392;2023-09-30T13:15:07;3.97;;;1.40;;
32152;SDS011;18656;50.580;11.392;2023-09-30T13:17:36;3.58;;;1.40;;
32152;SDS011;18656;50.580;11.392;2023-09-30T13:20:03;2.88;;;1.30;;
32152;SDS011;18656;50.580;11.392;2023-09-30T13:22:31;1.60;;;1.13;;
32152;SDS011;18656;50.580;11.392;2023-09-30T13:25:00;2.42;;;1.02;;
32152;SDS011;18656;50.580;11.392;2023-09-30T13:27:28;3.45;;;1.27;;
32152;SDS011;18656;50.580;11.392;2023-09-30T13:29:56;4.80;;;1.45;;
32152;SDS011;18656;50.580;11.392;2023-09-30T13:32:27;4.20;;;1.30;;
32152;SDS011;18656;50.580;11.392;2023-09-30T13:34:55;1.73;;;1.02;;
32152;SDS011;18656;50.580;11.392;2023-09-30T13:37:24;2.90;;;1.52;;
32152;SDS011;18656;50.580;11.392;2023-09-30T13:39:56;3.33;;;1.30;;
32152;SDS011;18656;50.580;11.392;2023-09-30T13:42:23;2.88;;;1.30;;
32152;SDS011;18656;50.580;11.392;2023-09-30T13:44:50;5.45;;;1.27;;
32152;SDS011;18656;50.580;11.392;2023-09-30T13:47:18;3.83;;;1.45;;
32152;SDS011;18656;50.580;11.392;2023-09-30T13:49:45;3.42;;;1.35;;
32152;SDS011;18656;50.580;11.392;2023-09-30T13:52:12;3.92;;;1.60;;
32152;SDS011;18656;50.580;11.392;2023-09-30T13:54:39;3.72;;;1.23;;
32152;SDS011;18656;50.580;11.392;2023-09-30T13:57:08;3.70;;;1.48;;
32152;SDS011;18656;50.580;11.392;2023-09-30T13:59:35;5.78;;;1.85;;
32152;SDS011;18656;50.580;11.392;2023-09-30T14:02:02;3.25;;;1.35;;
32152;SDS011;18656;50.580;11.392;2023-09-30T14:04:30;6.15;;;1.70;;
32152;SDS011;18656;50.580;11.392;2023-09-30T14:06:58;6.00;;;1.60;;
32152;SDS011;18656;50.580;11.392;2023-09-30T14:09:26;5.32;;;1.73;;
32152;SDS011;18656;50.580;11.392;2023-09-30T14:12:01;6.53;;;1.58;;
32152;SDS011;18656;50.580;11.392;2023-09-30T14:14:32;4.70;;;1.80;;
32152;SDS011;18656;50.580;11.392;2023-09-30T14:17:00;4.63;;;1.33;;
32152;SDS011;18656;50.580;11.392;2023-09-30T14:19:34;2.88;;;1.38;;
32152;SDS011;18656;50.580;11.392;2023-09-30T14:22:01;4.57;;;1.58;;
32152;SDS011;18656;50.580;11.392;2023-09-30T14:24:31;4.05;;;1.35;;
32152;SDS011;18656;50.580;11.392;2023-09-30T14:27:02;3.33;;;1.38;;
32152;SDS011;18656;50.580;11.392;2023-09-30T14:29:32;3.78;;;1.23;;
32152;SDS011;18656;50.580;11.392;2023-09-30T14:32:00;3.53;;;1.50;;
32152;SDS011;18656;50.580;11.392;2023-09-30T14:34:28;5.65;;;1.58;;
32152;SDS011;18656;50.580;11.392;2023-09-30T14:36:55;3.15;;;1.45;;
32152;SDS011;18656;50.580;11.392;2023-09-30T14:39:23;2.65;;;1.30;;
32152;SDS011;18656;50.580;11.392;2023-09-30T14:41:50;2.40;;;1.40;;
32152;SDS011;18656;50.580;11.392;2023-09-30T14:44:20;3.85;;;1.33;;
32152;SDS011;18656;50.580;11.392;2023-09-30T14:46:49;3.45;;;1.33;;
32152;SDS011;18656;50.580;11.392;2023-09-30T14:49:16;2.40;;;1.20;;
32152;SDS011;18656;50.580;11.392;2023-09-30T14:51:44;3.40;;;1.17;;
32152;SDS011;18656;50.580;11.392;2023-09-30T14:54:15;4.63;;;1.40;;
32152;SDS011;18656;50.580;11.392;2023-09-30T14:56:42;3.85;;;1.58;;
32152;SDS011;18656;50.580;11.392;2023-09-30T14:59:10;3.03;;;1.23;;
32152;SDS011;18656;50.580;11.392;2023-09-30T15:01:38;2.47;;;1.30;;
32152;SDS011;18656;50.580;11.392;2023-09-30T15:04:05;5.60;;;2.03;;
32152;SDS011;18656;50.580;11.392;2023-09-30T15:06:36;5.07;;;1.55;;
32152;SDS011;18656;50.580;11.392;2023-09-30T15:09:03;4.82;;;1.45;;
32152;SDS011;18656;50.580;11.392;2023-09-30T15:11:35;5.80;;;1.65;;
32152;SDS011;18656;50.580;11.392;2023-09-30T15:14:02;3.95;;;1.58;;
32152;SDS011;18656;50.580;11.392;2023-09-30T15:16:31;2.72;;;1.40;;
32152;SDS011;18656;50.580;11.392;2023-09-30T15:18:58;3.72;;;1.45;;
32152;SDS011;18656;50.580;11.392;2023-09-30T15:21:34;3.15;;;1.60;;
32152;SDS011;18656;50.580;11.392;2023-09-30T15:24:02;3.75;;;1.38;;
32152;SDS011;18656;50.580;11.392;2023-09-30T15:26:30;4.95;;;1.58;;
32152;SDS011;18656;50.580;11.392;2023-09-30T15:28:57;4.32;;;1.70;;
32152;SDS011;18656;50.580;11.392;2023-09-30T15:31:28;3.63;;;1.55;;